createdAt,value
2018-11-14T00:02:11.932Z,8.97
2018-11-14T00:07:08.704Z,7.40
2018-11-14T00:12:05.464Z,9.00
2018-11-14T00:17:02.450Z,8.00
2018-11-14T00:21:59.179Z,8.30
2018-11-14T00:26:55.921Z,9.83
2018-11-14T00:31:52.733Z,10.03
2018-11-14T00:36:49.502Z,11.30
2018-11-14T00:41:46.253Z,9.67
2018-11-14T00:46:43.069Z,9.87
2018-11-14T00:51:39.841Z,10.93
2018-11-14T00:56:36.575Z,8.77
2018-11-14T01:01:33.399Z,8.00
2018-11-14T01:06:30.127Z,9.50
2018-11-14T01:11:27.277Z,8.63
2018-11-14T01:16:24.027Z,11.53
2018-11-14T01:21:20.778Z,11.73
2018-11-14T01:26:17.511Z,10.73
2018-11-14T01:31:14.264Z,9.40
2018-11-14T01:36:11.285Z,10.10
2018-11-14T01:41:08.041Z,14.90
2018-11-14T01:46:04.766Z,14.40
2018-11-14T01:51:01.537Z,15.40
2018-11-14T01:55:58.313Z,11.70
2018-11-14T02:00:55.026Z,13.03
2018-11-14T02:05:51.784Z,10.33
2018-11-14T02:10:48.570Z,14.47
2018-11-14T02:15:45.317Z,11.70
2018-11-14T02:20:42.061Z,9.33
2018-11-14T02:25:38.804Z,12.20
2018-11-14T02:30:35.517Z,10.37
2018-11-14T02:35:32.395Z,13.07
2018-11-14T02:40:29.155Z,13.77
2018-11-14T02:45:25.948Z,18.53
2018-11-14T02:50:22.745Z,14.87
2018-11-14T02:55:19.452Z,14.73
2018-11-14T03:00:18.526Z,11.20
2018-11-14T03:05:15.232Z,11.23
2018-11-14T03:10:13.396Z,10.83
2018-11-14T03:15:11.563Z,14.73
2018-11-14T03:20:09.446Z,17.60
2018-11-14T03:25:06.626Z,13.10
2018-11-14T03:30:03.672Z,15.60
2018-11-14T03:35:00.459Z,22.93
2018-11-14T03:39:57.226Z,17.00
2018-11-14T03:44:54.022Z,18.03
2018-11-14T03:49:50.765Z,19.90
2018-11-14T03:54:47.567Z,19.73
2018-11-14T03:59:44.257Z,15.80
2018-11-14T04:04:41.203Z,17.77
2018-11-14T04:09:37.919Z,18.17
2018-11-14T04:14:34.627Z,16.87
2018-11-14T04:19:31.340Z,20.57
2018-11-14T04:24:28.223Z,21.83
2018-11-14T04:29:24.982Z,21.43
2018-11-14T04:34:21.748Z,17.37
2018-11-14T04:39:18.467Z,18.33
2018-11-14T04:44:15.224Z,22.60
2018-11-14T04:49:11.947Z,18.77
2018-11-14T04:54:08.716Z,17.53
2018-11-14T04:59:05.467Z,17.23
2018-11-14T05:04:02.210Z,19.17
2018-11-14T05:08:58.933Z,17.67
2018-11-14T05:13:55.669Z,21.23
2018-11-14T05:18:52.435Z,23.13
2018-11-14T05:23:49.178Z,18.97
2018-11-14T05:28:45.938Z,20.60
2018-11-14T05:33:42.794Z,21.90
2018-11-14T05:38:39.608Z,20.57
2018-11-14T05:43:36.381Z,20.90
2018-11-14T05:48:33.125Z,25.47
2018-11-14T05:53:29.957Z,20.20
2018-11-14T05:58:26.830Z,20.53
2018-11-14T06:03:23.548Z,26.00
2018-11-14T06:08:20.222Z,24.20
2018-11-14T06:13:17.005Z,20.70
2018-11-14T06:18:13.735Z,20.60
2018-11-14T06:23:10.508Z,18.10
2018-11-14T06:28:08.548Z,17.33
2018-11-14T06:33:06.274Z,20.87
2018-11-14T06:38:02.998Z,23.47
2018-11-14T06:42:59.757Z,20.03
2018-11-14T06:47:57.557Z,29.00
2018-11-14T06:52:56.913Z,22.13
2018-11-14T06:57:53.706Z,22.47
2018-11-14T07:02:50.905Z,22.40
2018-11-14T07:07:47.626Z,17.83
2018-11-14T07:12:44.395Z,20.20
2018-11-14T07:17:41.640Z,21.03
2018-11-14T07:22:38.318Z,16.23
2018-11-14T07:27:35.031Z,17.80
2018-11-14T07:32:32.432Z,21.77
2018-11-14T07:37:29.123Z,17.20
2018-11-14T07:42:25.846Z,18.77
2018-11-14T07:47:22.634Z,15.10
2018-11-14T07:52:19.380Z,72.57
2018-11-14T07:57:16.159Z,35.73
2018-11-14T08:02:13.263Z,29.80
2018-11-14T08:07:09.913Z,24.27
2018-11-14T08:12:06.571Z,12.77
2018-11-14T08:17:03.271Z,10.60
2018-11-14T08:21:59.982Z,12.07
2018-11-14T08:26:56.880Z,10.43
2018-11-14T08:31:53.617Z,27.40
2018-11-14T08:36:50.368Z,24.80
2018-11-14T08:41:47.094Z,19.27
2018-11-14T08:46:43.814Z,43.00
2018-11-14T08:51:40.528Z,33.10
2018-11-14T08:56:37.264Z,43.13
2018-11-14T09:01:33.946Z,59.07
2018-11-14T09:06:30.596Z,34.97
2018-11-14T09:11:27.411Z,22.30
2018-11-14T09:16:24.116Z,21.87
2018-11-14T09:21:20.822Z,26.27
2018-11-14T09:26:17.511Z,29.37
2018-11-14T09:31:14.230Z,38.20
2018-11-14T09:36:10.895Z,29.73
2018-11-14T09:41:07.725Z,22.73
2018-11-14T09:46:04.689Z,25.13
2018-11-14T09:51:01.434Z,17.27
2018-11-14T09:55:58.147Z,16.77
2018-11-14T10:00:55.001Z,16.80
2018-11-14T10:05:51.791Z,13.57
2018-11-14T10:10:48.571Z,14.60
2018-11-14T10:15:45.297Z,14.87
2018-11-14T10:20:41.949Z,23.43
2018-11-14T10:25:38.700Z,14.43
2018-11-14T10:30:35.426Z,15.73
2018-11-14T10:35:32.150Z,16.23
2018-11-14T10:40:28.884Z,15.27
2018-11-14T10:45:26.591Z,14.77
2018-11-14T10:50:25.483Z,17.23
2018-11-14T10:55:22.555Z,14.47
2018-11-14T11:00:28.218Z,12.00
2018-11-14T11:05:32.458Z,13.33
2018-11-14T11:10:34.957Z,13.70
2018-11-14T11:15:37.883Z,9.30
2018-11-14T11:20:34.564Z,9.63
2018-11-14T11:25:31.345Z,9.07
2018-11-14T11:30:28.155Z,10.37
2018-11-14T11:35:24.866Z,11.27
2018-11-14T11:40:21.554Z,8.77
2018-11-14T11:45:18.307Z,10.20
2018-11-14T11:50:15.057Z,11.57
2018-11-14T11:55:12.090Z,9.30
2018-11-14T12:00:10.672Z,10.30
2018-11-14T12:05:08.100Z,9.57
2018-11-14T12:10:05.111Z,10.40
2018-11-14T12:15:01.870Z,10.37
2018-11-14T12:19:58.589Z,11.90
2018-11-14T12:24:55.265Z,11.43
2018-11-14T12:29:52.088Z,9.87
2018-11-14T12:34:48.830Z,13.43
2018-11-14T12:39:45.589Z,9.50
2018-11-14T12:44:42.423Z,11.13
2018-11-14T12:49:39.105Z,26.57
2018-11-14T12:54:35.885Z,8.73
2018-11-14T12:59:32.732Z,9.23
2018-11-14T13:04:29.357Z,11.37
2018-11-14T13:09:26.128Z,11.87
2018-11-14T13:14:22.805Z,9.30
2018-11-14T13:19:19.577Z,8.77
2018-11-14T13:24:16.271Z,7.27
2018-11-14T13:29:12.995Z,8.40
2018-11-14T13:34:09.748Z,9.50
2018-11-14T13:39:07.098Z,8.83
2018-11-14T13:44:03.750Z,18.80
2018-11-14T13:49:01.053Z,16.13
2018-11-14T13:53:57.752Z,9.20
2018-11-14T13:58:54.429Z,12.17
2018-11-14T14:03:51.148Z,9.93
2018-11-14T14:08:47.951Z,12.10
2018-11-14T14:13:50.397Z,12.43
2018-11-14T14:18:47.142Z,11.53
2018-11-14T14:23:43.919Z,13.13
2018-11-14T14:28:40.600Z,10.73
2018-11-14T14:33:37.370Z,10.77
2018-11-14T14:38:34.118Z,9.97
2018-11-14T14:43:30.786Z,10.93
2018-11-14T14:48:27.526Z,11.23
2018-11-14T14:53:24.302Z,10.73
2018-11-14T14:58:21.030Z,9.43
2018-11-14T15:03:17.839Z,7.83
2018-11-14T15:08:14.536Z,11.87
2018-11-14T15:13:11.292Z,8.77
2018-11-14T15:18:08.066Z,9.90
2018-11-14T15:23:05.115Z,13.63
2018-11-14T15:28:05.393Z,8.50
2018-11-14T15:33:02.600Z,11.30
2018-11-14T15:37:59.321Z,10.77
2018-11-14T15:42:56.166Z,13.63
2018-11-14T15:47:52.939Z,11.83
2018-11-14T15:52:50.659Z,17.33
2018-11-14T15:57:47.622Z,40.50
2018-11-14T16:02:44.332Z,15.80
2018-11-14T16:07:42.141Z,13.97
2018-11-14T16:12:39.834Z,16.37
2018-11-14T16:17:37.079Z,16.13
2018-11-14T16:22:33.772Z,16.73
2018-11-14T16:27:30.613Z,15.73
2018-11-14T16:32:27.526Z,19.97
2018-11-14T16:37:24.234Z,16.67
2018-11-14T16:42:20.928Z,14.33
2018-11-14T16:47:17.689Z,15.17
2018-11-14T16:52:14.452Z,20.93
2018-11-14T16:57:11.328Z,18.57
2018-11-14T17:02:08.020Z,19.40
2018-11-14T17:07:04.789Z,19.93
2018-11-14T17:12:01.551Z,18.23
2018-11-14T17:16:58.325Z,22.80
2018-11-14T17:21:55.109Z,27.83
2018-11-14T17:26:51.848Z,20.67
2018-11-14T17:31:48.852Z,28.80
2018-11-14T17:36:45.611Z,29.13
2018-11-14T17:41:43.135Z,24.80
2018-11-14T17:46:39.803Z,26.23
2018-11-14T17:51:36.520Z,28.03
2018-11-14T17:56:33.247Z,28.37
2018-11-14T18:01:30.042Z,26.97
2018-11-14T18:06:26.946Z,25.93
2018-11-14T18:11:23.733Z,27.93
2018-11-14T18:16:20.457Z,30.27
2018-11-14T18:21:17.276Z,30.63
2018-11-14T18:26:13.996Z,26.80
2018-11-14T18:31:10.672Z,27.67
2018-11-14T18:36:07.496Z,26.83
2018-11-14T18:41:04.253Z,27.13
2018-11-14T18:46:01.073Z,28.27
2018-11-14T18:50:57.809Z,31.00
2018-11-14T18:55:54.532Z,31.90
2018-11-14T19:00:51.250Z,26.53
2018-11-14T19:05:47.999Z,28.93
2018-11-14T19:10:44.682Z,27.17
2018-11-14T19:15:41.349Z,26.40
2018-11-14T19:20:38.954Z,26.57
2018-11-14T19:25:36.848Z,26.07
2018-11-14T19:30:35.102Z,28.60
2018-11-14T19:35:31.898Z,28.63
2018-11-14T19:40:30.059Z,27.53
2018-11-14T19:45:29.323Z,25.50
2018-11-14T19:50:26.330Z,27.30
2018-11-14T19:55:24.149Z,28.03
2018-11-14T20:00:23.695Z,29.63
2018-11-14T20:05:21.062Z,25.93
2018-11-14T20:10:25.944Z,25.57
2018-11-14T20:15:24.311Z,28.13
2018-11-14T20:20:22.366Z,25.97
2018-11-14T20:25:19.220Z,25.20
2018-11-14T20:30:18.739Z,25.57
2018-11-14T20:35:16.652Z,23.70
2018-11-14T20:40:14.637Z,22.47
2018-11-14T20:45:13.176Z,22.03
2018-11-14T20:50:11.583Z,22.17
2018-11-14T20:55:09.230Z,20.90
2018-11-14T21:00:07.711Z,21.83
2018-11-14T21:05:05.290Z,21.57
2018-11-14T21:10:01.986Z,23.07
2018-11-14T21:14:58.759Z,21.97
2018-11-14T21:19:55.534Z,20.70
2018-11-14T21:24:52.338Z,21.80
2018-11-14T21:29:49.064Z,20.87
2018-11-14T21:34:45.797Z,22.67
2018-11-14T21:39:42.514Z,20.97
2018-11-14T21:44:39.317Z,21.43
2018-11-14T21:49:36.064Z,20.93
2018-11-14T21:54:32.853Z,21.10
2018-11-14T21:59:29.630Z,21.40
2018-11-14T22:04:26.392Z,25.63
2018-11-14T22:09:23.073Z,22.87
2018-11-14T22:14:19.849Z,20.17
2018-11-14T22:19:16.604Z,24.80
2018-11-14T22:24:13.312Z,21.70
2018-11-14T22:29:10.030Z,20.83
2018-11-14T22:34:06.810Z,25.60
2018-11-14T22:39:05.533Z,21.47
2018-11-14T22:44:02.459Z,25.30
2018-11-14T22:48:59.231Z,23.13
2018-11-14T22:53:55.909Z,24.07
2018-11-14T22:58:52.654Z,20.90
2018-11-14T23:03:49.339Z,23.17
2018-11-14T23:08:46.012Z,24.27
2018-11-14T23:13:42.718Z,22.37
2018-11-14T23:18:50.578Z,23.80
2018-11-14T23:23:47.351Z,24.23
2018-11-14T23:28:44.138Z,21.97
2018-11-14T23:33:40.883Z,24.63
2018-11-14T23:38:37.660Z,22.17
2018-11-14T23:43:34.393Z,21.03
2018-11-14T23:48:31.132Z,26.00
2018-11-14T23:53:27.785Z,25.37
2018-11-14T23:58:24.489Z,22.00
